createdAt,value
2023-02-14T00:02:06.999Z,19.73
2023-02-14T00:04:33.996Z,17.60
2023-02-14T00:09:29.083Z,16.48
2023-02-14T00:11:55.681Z,17.02
2023-02-14T00:14:41.057Z,18.63
2023-02-14T00:17:07.557Z,19.95
2023-02-14T00:19:35.932Z,21.75
2023-02-14T00:22:03.547Z,23.65
2023-02-14T00:24:30.189Z,20.67
2023-02-14T00:26:57.095Z,18.75
2023-02-14T00:29:27.855Z,21.27
2023-02-14T00:31:54.843Z,16.63
2023-02-14T00:34:23.948Z,24.90
2023-02-14T00:36:50.704Z,21.23
2023-02-14T00:39:18.607Z,19.85
2023-02-14T00:41:45.343Z,24.13
2023-02-14T00:44:15.177Z,24.27
2023-02-14T00:46:41.931Z,25.10
2023-02-14T00:49:08.613Z,29.33
2023-02-14T00:51:38.061Z,26.23
2023-02-14T00:54:04.946Z,26.45
2023-02-14T00:56:32.239Z,29.30
2023-02-14T00:58:59.126Z,26.30
2023-02-14T01:01:27.946Z,23.23
2023-02-14T01:03:54.755Z,27.08
2023-02-14T01:06:23.762Z,22.17
2023-02-14T01:08:51.484Z,20.20
2023-02-14T01:11:20.575Z,16.65
2023-02-14T01:13:48.491Z,20.40
2023-02-14T01:16:18.566Z,16.13
2023-02-14T01:18:46.241Z,20.70
2023-02-14T01:21:24.843Z,16.52
2023-02-14T01:23:54.629Z,19.15
2023-02-14T01:26:22.547Z,24.83
2023-02-14T01:28:49.781Z,22.05
2023-02-14T01:31:18.252Z,21.25
2023-02-14T01:33:47.080Z,20.73
2023-02-14T01:36:22.437Z,23.63
2023-02-14T01:38:52.631Z,23.35
2023-02-14T01:41:19.716Z,24.65
2023-02-14T01:46:28.566Z,16.35
2023-02-14T01:49:01.870Z,20.90
2023-02-14T01:51:29.339Z,18.35
2023-02-14T01:53:56.924Z,16.92
2023-02-14T01:56:35.922Z,19.95
2023-02-14T01:59:06.350Z,25.00
2023-02-14T02:01:33.025Z,26.27
2023-02-14T02:04:07.384Z,19.27
2023-02-14T02:07:05.784Z,21.10
2023-02-14T02:09:42.268Z,18.73
2023-02-14T02:12:09.004Z,20.45
2023-02-14T02:14:36.820Z,20.85
2023-02-14T02:17:21.394Z,22.15
2023-02-14T02:20:17.648Z,18.75
2023-02-14T02:23:25.808Z,16.02
2023-02-14T02:25:55.081Z,28.65
2023-02-14T02:29:07.095Z,22.70
2023-02-14T02:31:45.193Z,25.52
2023-02-14T02:34:36.612Z,23.85
2023-02-14T02:37:12.188Z,23.90
2023-02-14T02:40:20.263Z,21.35
2023-02-14T02:42:53.623Z,20.38
2023-02-14T02:46:17.670Z,21.73
2023-02-14T02:49:01.192Z,22.52
2023-02-14T02:51:55.612Z,22.38
2023-02-14T02:54:34.979Z,20.40
2023-02-14T02:57:05.524Z,20.15
2023-02-14T02:59:41.536Z,18.25
2023-02-14T03:02:13.765Z,20.65
2023-02-14T03:04:54.361Z,24.48
2023-02-14T03:07:34.793Z,23.20
2023-02-14T03:10:06.272Z,31.00
2023-02-14T03:12:37.442Z,30.05
2023-02-14T03:15:30.182Z,34.33
2023-02-14T03:18:22.264Z,25.23
2023-02-14T03:21:04.885Z,32.30
2023-02-14T03:23:38.400Z,32.67
2023-02-14T03:26:22.046Z,34.65
2023-02-14T03:29:08.716Z,33.97
2023-02-14T03:32:02.698Z,33.53
2023-02-14T03:34:48.906Z,26.77
2023-02-14T03:37:22.218Z,24.85
2023-02-14T03:40:11.431Z,30.77
2023-02-14T03:42:41.608Z,24.83
2023-02-14T03:45:13.176Z,30.05
2023-02-14T03:47:43.159Z,26.33
2023-02-14T03:50:16.779Z,30.55
2023-02-14T03:52:44.818Z,28.27
2023-02-14T03:55:15.379Z,26.65
2023-02-14T03:58:06.486Z,27.70
2023-02-14T04:00:37.568Z,29.15
2023-02-14T04:03:11.817Z,27.15
2023-02-14T04:05:43.558Z,28.90
2023-02-14T04:08:11.940Z,32.92
2023-02-14T04:10:40.100Z,27.02
2023-02-14T04:13:06.703Z,31.30
2023-02-14T04:15:33.355Z,22.17
2023-02-14T04:18:18.972Z,23.90
2023-02-14T04:20:45.498Z,21.10
2023-02-14T04:23:12.056Z,19.80
2023-02-14T04:25:40.339Z,18.95
2023-02-14T04:28:06.848Z,21.27
2023-02-14T04:30:33.400Z,22.35
2023-02-14T04:33:00.087Z,25.23
2023-02-14T04:35:26.695Z,23.48
2023-02-14T04:37:53.241Z,22.75
2023-02-14T04:40:19.996Z,22.00
2023-02-14T04:42:46.889Z,19.85
2023-02-14T04:45:13.878Z,25.10
2023-02-14T04:50:07.666Z,14.07
2023-02-14T04:55:00.742Z,19.63
2023-02-14T04:57:27.321Z,19.40
2023-02-14T04:59:53.853Z,20.15
2023-02-14T05:02:20.432Z,20.63
2023-02-14T05:04:49.629Z,19.60
2023-02-14T05:07:16.390Z,21.80
2023-02-14T05:09:42.938Z,25.70
2023-02-14T05:12:09.713Z,20.63
2023-02-14T05:14:36.240Z,24.33
2023-02-14T05:17:03.107Z,24.80
2023-02-14T05:19:29.734Z,27.58
2023-02-14T05:21:56.264Z,22.55
2023-02-14T05:24:22.896Z,20.55
2023-02-14T05:26:49.707Z,23.88
2023-02-14T05:29:16.269Z,23.00
2023-02-14T05:31:42.897Z,30.33
2023-02-14T05:34:09.779Z,26.98
2023-02-14T05:36:36.308Z,26.75
2023-02-14T05:39:03.000Z,27.65
2023-02-14T05:41:29.886Z,27.02
2023-02-14T05:43:56.431Z,30.35
2023-02-14T05:46:23.279Z,22.75
2023-02-14T05:51:16.595Z,21.08
2023-02-14T05:53:43.299Z,27.98
2023-02-14T05:56:09.869Z,25.48
2023-02-14T05:58:36.502Z,24.83
2023-02-14T06:01:03.270Z,34.47
2023-02-14T06:03:30.051Z,27.92
2023-02-14T06:05:56.593Z,28.35
2023-02-14T06:08:23.418Z,33.13
2023-02-14T06:10:50.114Z,38.33
2023-02-14T06:13:16.794Z,39.35
2023-02-14T06:15:43.325Z,39.33
2023-02-14T06:18:10.098Z,28.85
2023-02-14T06:20:36.825Z,28.13
2023-02-14T06:23:03.754Z,28.17
2023-02-14T06:25:30.340Z,26.45
2023-02-14T06:27:58.549Z,28.95
2023-02-14T06:30:25.679Z,35.33
2023-02-14T06:32:52.296Z,37.03
2023-02-14T06:35:19.012Z,32.53
2023-02-14T06:37:45.718Z,28.50
2023-02-14T06:40:13.010Z,30.38
2023-02-14T06:42:40.044Z,33.63
2023-02-14T06:45:07.403Z,30.92
2023-02-14T06:47:35.202Z,32.65
2023-02-14T06:50:04.261Z,29.40
2023-02-14T06:52:32.240Z,29.98
2023-02-14T06:54:58.766Z,30.52
2023-02-14T06:57:25.345Z,29.10
2023-02-14T06:59:51.954Z,27.77
2023-02-14T07:02:18.773Z,33.78
2023-02-14T07:04:45.660Z,32.47
2023-02-14T07:07:12.241Z,29.75
2023-02-14T07:09:38.924Z,25.60
2023-02-14T07:12:05.705Z,19.10
2023-02-14T07:14:32.214Z,21.15
2023-02-14T07:16:58.781Z,25.05
2023-02-14T07:19:25.407Z,28.17
2023-02-14T07:21:52.001Z,23.52
2023-02-14T07:24:18.521Z,28.75
2023-02-14T07:26:45.092Z,24.85
2023-02-14T07:29:11.768Z,29.25
2023-02-14T07:31:38.500Z,31.40
2023-02-14T07:34:05.098Z,32.13
2023-02-14T07:36:32.915Z,34.17
2023-02-14T07:38:59.662Z,29.65
2023-02-14T07:41:26.269Z,37.80
2023-02-14T07:43:52.844Z,36.38
2023-02-14T07:46:22.546Z,36.83
2023-02-14T07:48:52.516Z,36.90
2023-02-14T07:51:19.276Z,35.35
2023-02-14T07:53:47.962Z,31.92
2023-02-14T07:56:14.737Z,29.25
2023-02-14T07:58:43.823Z,32.35
2023-02-14T08:01:12.395Z,27.98
2023-02-14T08:03:38.933Z,33.10
2023-02-14T08:06:07.787Z,32.65
2023-02-14T08:08:34.480Z,44.42
2023-02-14T08:11:01.661Z,45.22
2023-02-14T08:13:28.531Z,39.63
2023-02-14T08:16:09.849Z,46.72
2023-02-14T08:18:41.290Z,37.15
2023-02-14T08:21:11.313Z,31.15
2023-02-14T08:23:38.239Z,37.78
2023-02-14T08:28:33.007Z,27.17
2023-02-14T08:31:00.909Z,29.15
2023-02-14T08:33:28.258Z,32.17
2023-02-14T08:35:55.224Z,31.35
2023-02-14T08:38:22.465Z,35.65
2023-02-14T08:40:49.158Z,37.30
2023-02-14T08:43:15.900Z,35.72
2023-02-14T08:45:42.937Z,35.42
2023-02-14T08:50:38.227Z,24.92
2023-02-14T08:53:09.681Z,37.30
2023-02-14T08:55:36.656Z,35.88
2023-02-14T08:58:04.736Z,33.83
2023-02-14T09:00:32.511Z,35.97
2023-02-14T09:02:59.398Z,33.08
2023-02-14T09:05:26.507Z,32.28
2023-02-14T09:07:55.979Z,28.90
2023-02-14T09:10:23.398Z,29.60
2023-02-14T09:12:50.436Z,27.90
2023-02-14T09:17:43.726Z,29.73
2023-02-14T09:20:12.161Z,27.95
2023-02-14T09:22:38.798Z,30.58
2023-02-14T09:25:06.259Z,25.65
2023-02-14T09:27:32.963Z,20.80
2023-02-14T09:29:59.788Z,31.45
2023-02-14T09:32:27.160Z,28.20
2023-02-14T09:34:53.831Z,30.33
2023-02-14T09:37:20.524Z,31.42
2023-02-14T09:39:47.072Z,27.10
2023-02-14T09:43:02.147Z,31.10
2023-02-14T09:45:32.299Z,25.58
2023-02-14T09:48:17.204Z,24.98
2023-02-14T09:50:47.365Z,32.83
2023-02-14T09:53:26.008Z,26.02
2023-02-14T09:56:31.036Z,25.45
2023-02-14T10:01:38.369Z,23.70
2023-02-14T10:04:23.201Z,21.88
2023-02-14T10:07:15.405Z,26.40
2023-02-14T10:10:30.831Z,29.65
2023-02-14T10:13:40.306Z,26.23
2023-02-14T10:16:14.163Z,32.78
2023-02-14T10:18:49.916Z,26.17
2023-02-14T10:21:25.450Z,28.40
2023-02-14T10:24:01.994Z,24.55
2023-02-14T10:26:40.122Z,21.48
2023-02-14T10:29:12.871Z,26.50
2023-02-14T10:31:55.562Z,26.02
2023-02-14T10:34:38.991Z,26.17
2023-02-14T10:37:24.608Z,25.85
2023-02-14T10:40:05.876Z,24.52
2023-02-14T10:42:47.437Z,28.83
2023-02-14T10:45:45.027Z,23.85
2023-02-14T10:48:17.762Z,29.02
2023-02-14T10:51:03.211Z,25.90
2023-02-14T10:54:19.316Z,25.38
2023-02-14T10:59:25.870Z,20.75
2023-02-14T11:01:54.695Z,23.48
2023-02-14T11:04:23.912Z,23.83
2023-02-14T11:06:50.925Z,23.77
2023-02-14T11:09:18.259Z,22.70
2023-02-14T11:11:54.378Z,24.75
2023-02-14T11:14:24.010Z,25.13
2023-02-14T11:16:51.994Z,32.38
2023-02-14T11:19:23.880Z,30.25
2023-02-14T11:21:52.184Z,26.27
2023-02-14T11:24:39.769Z,24.65
2023-02-14T11:27:12.380Z,28.25
2023-02-14T11:29:38.862Z,25.42
2023-02-14T11:32:21.596Z,26.27
2023-02-14T11:34:57.892Z,24.73
2023-02-14T11:37:28.613Z,27.63
2023-02-14T11:39:57.981Z,29.30
2023-02-14T11:42:54.605Z,28.63
2023-02-14T11:45:36.336Z,29.23
2023-02-14T11:48:37.635Z,25.55
2023-02-14T11:51:14.987Z,22.38
2023-02-14T11:53:51.942Z,26.80
2023-02-14T11:56:20.407Z,24.13
2023-02-14T11:58:52.779Z,23.05
2023-02-14T12:01:26.849Z,23.17
2023-02-14T12:03:55.488Z,27.85
2023-02-14T12:06:30.243Z,30.35
2023-02-14T12:09:21.688Z,30.67
2023-02-14T12:12:02.590Z,25.60
2023-02-14T12:14:34.503Z,24.88
2023-02-14T12:17:27.451Z,23.63
2023-02-14T12:20:03.512Z,27.70
2023-02-14T12:22:35.930Z,26.90
2023-02-14T12:25:21.371Z,23.00
2023-02-14T12:27:53.733Z,22.98
2023-02-14T12:30:24.952Z,25.35
2023-02-14T12:32:54.328Z,21.45
2023-02-14T12:35:46.247Z,22.83
2023-02-14T12:38:36.529Z,29.30
2023-02-14T12:41:12.198Z,25.35
2023-02-14T12:43:52.440Z,27.58
2023-02-14T12:46:30.307Z,28.58
2023-02-14T12:49:03.204Z,22.60
2023-02-14T12:51:50.865Z,23.52
2023-02-14T12:55:16.014Z,24.85
2023-02-14T12:58:02.323Z,27.10
2023-02-14T13:01:01.403Z,24.83
2023-02-14T13:03:31.243Z,27.55
2023-02-14T13:06:30.630Z,25.75
2023-02-14T13:09:06.109Z,22.60
2023-02-14T13:11:46.708Z,23.92
2023-02-14T13:14:45.681Z,23.65
2023-02-14T13:17:41.073Z,25.75
2023-02-14T13:20:45.388Z,23.65
2023-02-14T13:23:29.930Z,24.77
2023-02-14T13:26:01.381Z,21.58
2023-02-14T13:28:30.786Z,30.77
2023-02-14T13:30:59.900Z,24.73
2023-02-14T13:33:40.183Z,23.55
2023-02-14T13:36:12.599Z,22.23
2023-02-14T13:38:52.217Z,25.70
2023-02-14T13:41:21.428Z,24.77
2023-02-14T13:44:08.250Z,22.92
2023-02-14T13:46:35.146Z,31.75
2023-02-14T13:49:22.023Z,25.38
2023-02-14T13:51:51.040Z,24.10
2023-02-14T13:54:44.944Z,21.95
2023-02-14T13:57:29.409Z,24.33
2023-02-14T14:00:17.956Z,24.17
2023-02-14T14:02:48.876Z,24.50
2023-02-14T14:05:30.585Z,26.40
2023-02-14T14:08:27.561Z,24.35
2023-02-14T14:10:57.603Z,24.58
2023-02-14T14:13:42.655Z,30.65
2023-02-14T14:16:27.458Z,25.77
2023-02-14T14:18:58.588Z,23.90
2023-02-14T14:21:29.747Z,24.50
2023-02-14T14:24:20.807Z,23.88
2023-02-14T14:26:56.424Z,22.52
2023-02-14T14:29:31.015Z,27.80
2023-02-14T14:31:58.519Z,24.70
2023-02-14T14:34:28.236Z,23.48
2023-02-14T14:37:05.826Z,23.42
2023-02-14T14:39:34.637Z,21.75
2023-02-14T14:42:09.810Z,22.98
2023-02-14T14:44:44.982Z,23.35
2023-02-14T14:47:24.497Z,21.77
2023-02-14T14:50:00.312Z,20.67
2023-02-14T14:52:34.908Z,20.95
2023-02-14T14:55:02.961Z,18.30
2023-02-14T14:57:30.110Z,23.48
2023-02-14T15:00:18.931Z,20.48
2023-02-14T15:03:07.085Z,21.17
2023-02-14T15:05:40.472Z,20.17
2023-02-14T15:08:17.566Z,22.00
2023-02-14T15:10:49.591Z,21.58
2023-02-14T15:13:35.046Z,22.85
2023-02-14T15:16:03.819Z,21.38
2023-02-14T15:18:30.679Z,19.83
2023-02-14T15:20:57.424Z,21.23
2023-02-14T15:23:25.118Z,21.52
2023-02-14T15:25:52.344Z,17.85
2023-02-14T15:28:31.731Z,22.50
2023-02-14T15:31:03.808Z,19.23
2023-02-14T15:33:32.214Z,17.83
2023-02-14T15:36:04.223Z,23.08
2023-02-14T15:38:32.112Z,19.60
2023-02-14T15:41:00.248Z,14.90
2023-02-14T15:43:32.601Z,18.73
2023-02-14T15:46:15.116Z,19.92
2023-02-14T15:48:42.337Z,18.55
2023-02-14T15:51:16.801Z,17.80
2023-02-14T15:53:53.649Z,13.88
2023-02-14T15:59:00.317Z,12.75
2023-02-14T16:01:27.665Z,15.13
2023-02-14T16:03:59.619Z,13.48
2023-02-14T16:06:37.383Z,11.48
2023-02-14T16:09:26.061Z,11.55
2023-02-14T16:11:53.648Z,14.88
2023-02-14T16:14:29.390Z,15.77
2023-02-14T16:17:06.084Z,12.93
2023-02-14T16:19:35.445Z,14.38
2023-02-14T16:22:02.157Z,10.23
2023-02-14T16:24:28.801Z,10.95
2023-02-14T16:26:56.393Z,14.63
2023-02-14T16:29:22.912Z,12.25
2023-02-14T16:32:14.557Z,12.43
2023-02-14T16:34:41.737Z,16.75
2023-02-14T16:39:39.318Z,17.25
2023-02-14T16:42:06.257Z,14.73
2023-02-14T16:44:33.112Z,16.30
2023-02-14T16:47:01.949Z,14.45
2023-02-14T16:49:28.500Z,16.17
2023-02-14T16:51:55.371Z,14.23
2023-02-14T16:56:53.400Z,10.10
2023-02-14T16:59:19.951Z,14.55
2023-02-14T17:01:46.593Z,13.57
2023-02-14T17:04:13.411Z,13.07
2023-02-14T17:06:43.511Z,18.20
2023-02-14T17:09:13.651Z,14.48
2023-02-14T17:11:45.206Z,14.90
2023-02-14T17:14:17.838Z,14.90
2023-02-14T17:16:44.410Z,16.23
2023-02-14T17:19:11.788Z,13.68
2023-02-14T17:21:38.689Z,19.10
2023-02-14T17:24:05.481Z,14.32
2023-02-14T17:26:33.757Z,15.90
2023-02-14T17:29:00.413Z,13.13
2023-02-14T17:31:28.574Z,15.40
2023-02-14T17:33:55.490Z,17.42
2023-02-14T17:36:24.148Z,18.17
2023-02-14T17:38:53.489Z,16.50
2023-02-14T17:41:25.698Z,16.00
2023-02-14T17:44:00.132Z,15.80
2023-02-14T17:46:31.027Z,19.45
2023-02-14T17:48:57.900Z,19.40
2023-02-14T17:51:24.958Z,18.08
2023-02-14T17:53:51.848Z,15.35
2023-02-14T17:56:24.532Z,17.52
2023-02-14T17:58:57.751Z,17.95
2023-02-14T18:01:26.682Z,15.55
2023-02-14T18:03:55.971Z,19.17
2023-02-14T18:06:23.091Z,19.05
2023-02-14T18:08:52.997Z,16.90
2023-02-14T18:11:20.887Z,15.15
2023-02-14T18:13:47.678Z,16.55
2023-02-14T18:16:16.462Z,18.48
2023-02-14T18:18:43.364Z,20.48
2023-02-14T18:21:12.326Z,17.38
2023-02-14T18:23:39.311Z,18.92
2023-02-14T18:26:09.932Z,21.05
2023-02-14T18:28:36.638Z,14.95
2023-02-14T18:31:12.045Z,15.63
2023-02-14T18:33:39.756Z,15.43
2023-02-14T18:36:10.079Z,19.48
2023-02-14T18:38:36.841Z,15.57
2023-02-14T18:41:04.511Z,19.67
2023-02-14T18:43:31.287Z,19.02
2023-02-14T18:46:10.242Z,17.27
2023-02-14T18:48:36.903Z,17.17
2023-02-14T18:51:23.528Z,16.00
2023-02-14T18:53:52.239Z,18.73
2023-02-14T18:56:22.176Z,17.20
2023-02-14T18:58:52.720Z,18.23
2023-02-14T19:01:23.291Z,21.08
2023-02-14T19:03:51.262Z,21.17
2023-02-14T19:06:18.239Z,19.50
2023-02-14T19:11:18.414Z,17.40
2023-02-14T19:13:51.218Z,14.45
2023-02-14T19:16:24.375Z,15.90
2023-02-14T19:18:53.356Z,16.02
2023-02-14T19:21:25.687Z,19.23
2023-02-14T19:23:54.361Z,19.83
2023-02-14T19:26:23.704Z,21.20
2023-02-14T19:28:54.877Z,19.65
2023-02-14T19:31:21.861Z,18.60
2023-02-14T19:36:18.521Z,15.77
2023-02-14T19:38:48.207Z,17.50
2023-02-14T19:41:18.793Z,15.27
2023-02-14T19:43:46.452Z,17.75
2023-02-14T19:46:14.547Z,16.95
2023-02-14T19:48:41.513Z,20.17
2023-02-14T19:51:08.387Z,19.80
2023-02-14T19:53:34.969Z,14.93
2023-02-14T19:56:01.845Z,16.20
2023-02-14T19:58:28.646Z,17.00
2023-02-14T20:01:00.014Z,18.50
2023-02-14T20:03:30.607Z,17.95
2023-02-14T20:05:57.224Z,18.65
2023-02-14T20:08:23.963Z,18.70
2023-02-14T20:10:50.528Z,16.75
2023-02-14T20:13:17.056Z,16.77
2023-02-14T20:15:45.504Z,16.67
2023-02-14T20:18:12.013Z,15.68
2023-02-14T20:20:57.194Z,16.13
2023-02-14T20:23:23.802Z,13.63
2023-02-14T20:25:50.342Z,16.08
2023-02-14T20:28:16.888Z,19.63
2023-02-14T20:30:43.525Z,22.45
2023-02-14T20:33:10.138Z,20.25
2023-02-14T20:35:40.687Z,18.33
2023-02-14T20:38:07.870Z,21.55
2023-02-14T20:40:39.190Z,17.13
2023-02-14T20:43:06.272Z,17.33
2023-02-14T20:50:31.246Z,15.35
2023-02-14T20:52:58.185Z,12.05
2023-02-14T20:55:27.036Z,15.57
2023-02-14T20:57:53.924Z,16.42
2023-02-14T21:00:20.691Z,18.75
2023-02-14T21:02:47.230Z,18.02
2023-02-14T21:05:18.500Z,17.13
2023-02-14T21:07:45.210Z,17.40
2023-02-14T21:10:11.725Z,17.27
2023-02-14T21:12:38.672Z,15.95
2023-02-14T21:15:06.979Z,16.95
2023-02-14T21:17:33.984Z,14.90
2023-02-14T21:20:00.569Z,20.00
2023-02-14T21:22:27.214Z,16.80
2023-02-14T21:24:53.759Z,17.70
2023-02-14T21:27:20.285Z,19.75
2023-02-14T21:29:46.857Z,23.23
2023-02-14T21:32:13.503Z,17.08
2023-02-14T21:34:40.233Z,21.08
2023-02-14T21:37:06.740Z,22.30
2023-02-14T21:39:35.711Z,24.35
2023-02-14T21:42:02.404Z,20.13
2023-02-14T21:44:47.327Z,26.70
2023-02-14T21:47:13.924Z,23.20
2023-02-14T21:49:59.164Z,19.70
2023-02-14T21:52:25.713Z,21.85
2023-02-14T21:54:52.458Z,26.90
2023-02-14T21:57:19.013Z,31.30
2023-02-14T21:59:45.550Z,34.00
2023-02-14T22:02:12.444Z,37.03
2023-02-14T22:04:39.303Z,37.88
2023-02-14T22:07:07.871Z,33.97
2023-02-14T22:09:34.543Z,31.88
2023-02-14T22:12:01.104Z,29.35
2023-02-14T22:14:29.282Z,27.70
2023-02-14T22:16:55.991Z,23.20
2023-02-14T22:19:24.932Z,22.35
2023-02-14T22:21:51.422Z,19.20
2023-02-14T22:24:18.015Z,19.83
2023-02-14T22:26:44.598Z,16.83
2023-02-14T22:29:12.489Z,21.23
2023-02-14T22:31:43.629Z,20.10
2023-02-14T22:34:15.987Z,17.30
2023-02-14T22:36:42.568Z,20.67
2023-02-14T22:39:12.636Z,17.38
2023-02-14T22:41:39.575Z,20.17
2023-02-14T22:44:06.318Z,21.48
2023-02-14T22:46:33.352Z,23.50
2023-02-14T22:51:29.994Z,21.25
2023-02-14T22:53:59.397Z,20.38
2023-02-14T22:56:27.496Z,21.10
2023-02-14T22:58:55.875Z,19.95
2023-02-14T23:01:23.635Z,20.52
2023-02-14T23:03:57.131Z,17.80
2023-02-14T23:06:25.910Z,17.80
2023-02-14T23:08:53.511Z,15.35
2023-02-14T23:11:23.072Z,17.73
2023-02-14T23:14:08.235Z,16.90
2023-02-14T23:17:04.025Z,16.85
2023-02-14T23:19:51.376Z,18.55
2023-02-14T23:22:27.242Z,23.15
2023-02-14T23:24:57.252Z,16.70
2023-02-14T23:27:27.306Z,19.17
2023-02-14T23:29:53.816Z,23.67
2023-02-14T23:32:20.445Z,19.10
2023-02-14T23:34:47.218Z,17.83
2023-02-14T23:37:14.291Z,18.48
2023-02-14T23:42:13.698Z,19.38
2023-02-14T23:44:40.667Z,19.17
2023-02-14T23:47:08.632Z,22.10
2023-02-14T23:49:37.321Z,25.92
2023-02-14T23:52:06.462Z,30.30
2023-02-14T23:54:33.534Z,33.38
2023-02-14T23:59:26.629Z,26.58
